createdAt,value
2022-09-12T01:15:27.633Z,64.38
2022-09-12T01:20:51.586Z,64.33
2022-09-12T01:26:37.800Z,64.90
2022-09-12T01:32:25.356Z,64.69
2022-09-12T01:38:01.364Z,64.50
2022-09-12T01:43:31.834Z,64.28
2022-09-12T01:48:53.063Z,64.17
2022-09-12T01:54:21.773Z,64.61
2022-09-12T01:59:50.624Z,64.40
2022-09-12T02:05:17.319Z,64.49
2022-09-12T02:10:53.815Z,64.88
2022-09-12T02:16:26.321Z,64.55
2022-09-12T02:21:53.457Z,64.54
2022-09-12T02:27:18.286Z,64.29
2022-09-12T02:33:01.478Z,64.99
2022-09-12T02:38:33.636Z,64.35
2022-09-12T02:43:54.879Z,64.36
2022-09-12T02:49:17.382Z,64.43
2022-09-12T02:54:38.971Z,64.41
2022-09-12T03:00:01.935Z,64.52
2022-09-12T03:05:28.670Z,64.61
2022-09-12T03:11:32.534Z,65.16
2022-09-12T03:16:55.953Z,64.38
2022-09-12T03:22:16.885Z,64.44
2022-09-12T03:27:45.434Z,64.71
2022-09-12T03:33:06.700Z,64.83
2022-09-12T03:38:27.710Z,64.85
2022-09-12T03:43:48.718Z,64.98
2022-09-12T03:49:09.139Z,65.01
2022-09-12T03:54:30.019Z,64.76
2022-09-12T03:59:50.859Z,64.88
2022-09-12T04:05:11.636Z,64.91
2022-09-12T04:10:32.537Z,65.32
2022-09-12T04:16:00.256Z,64.81
2022-09-12T04:21:23.911Z,64.99
2022-09-12T04:26:44.959Z,64.83
2022-09-12T04:32:05.976Z,65.06
2022-09-12T04:37:26.707Z,65.42
2022-09-12T04:42:47.701Z,64.98
2022-09-12T04:48:08.421Z,65.15
2022-09-12T04:53:29.293Z,65.00
2022-09-12T04:58:51.527Z,65.13
2022-09-12T05:04:13.553Z,65.08
2022-09-12T05:09:34.391Z,65.23
2022-09-12T05:14:55.708Z,65.18
2022-09-12T05:20:17.373Z,65.20
2022-09-12T05:25:38.453Z,65.21
2022-09-12T05:31:02.357Z,65.56
2022-09-12T05:36:29.266Z,65.10
2022-09-12T05:41:50.001Z,64.77
2022-09-12T05:47:11.648Z,65.91
2022-09-12T05:52:32.720Z,64.54
2022-09-12T05:57:54.115Z,64.35
2022-09-12T06:03:15.436Z,64.19
2022-09-12T06:08:36.570Z,63.97
2022-09-12T06:13:58.634Z,64.10
2022-09-12T06:19:21.698Z,63.62
2022-09-12T06:24:42.490Z,63.14
2022-09-12T06:30:03.401Z,63.26
2022-09-12T06:35:24.048Z,63.20
2022-09-12T06:40:45.141Z,62.71
2022-09-12T06:46:06.504Z,62.84
2022-09-12T06:51:29.159Z,62.52
2022-09-12T06:56:49.941Z,62.43
2022-09-12T07:02:10.705Z,62.65
2022-09-12T07:07:34.294Z,62.01
2022-09-12T07:12:55.248Z,62.08
2022-09-12T07:18:16.234Z,61.34
2022-09-12T07:23:37.120Z,61.17
2022-09-12T07:29:18.628Z,60.99
2022-09-12T07:34:39.967Z,60.34
2022-09-12T07:40:02.312Z,60.54
2022-09-12T07:45:23.286Z,59.58
2022-09-12T07:50:45.191Z,58.38
2022-09-12T07:56:07.750Z,58.15
2022-09-12T08:01:29.803Z,57.70
2022-09-12T08:06:51.334Z,56.58
2022-09-12T08:12:12.630Z,55.33
2022-09-12T08:17:33.516Z,53.97
2022-09-12T08:22:54.363Z,52.34
2022-09-12T08:28:15.155Z,51.00
2022-09-12T08:33:36.103Z,50.57
2022-09-12T08:39:03.343Z,50.20
2022-09-12T08:44:41.369Z,41.67
2022-09-12T08:50:08.911Z,25.02
2022-09-12T08:55:51.316Z,23.92
2022-09-12T09:01:38.526Z,35.25
2022-09-12T09:07:24.580Z,27.44
2022-09-12T09:13:05.458Z,31.57
2022-09-12T09:18:32.990Z,32.33
2022-09-12T09:24:02.412Z,36.27
2022-09-12T09:29:41.527Z,42.77
2022-09-12T09:35:18.287Z,45.98
2022-09-12T09:40:42.517Z,47.69
2022-09-12T09:46:03.871Z,49.43
2022-09-12T09:51:28.098Z,49.49
2022-09-12T09:56:49.477Z,49.14
2022-09-12T10:02:13.644Z,35.84
2022-09-12T10:07:34.781Z,23.90
2022-09-12T10:13:22.897Z,17.33
2022-09-12T10:18:43.875Z,17.02
2022-09-12T10:24:36.640Z,25.47
2022-09-12T10:30:18.679Z,29.13
2022-09-12T10:35:49.771Z,29.32
2022-09-12T10:41:11.834Z,33.07
2022-09-12T10:46:33.009Z,22.56
2022-09-12T10:51:55.499Z,18.61
2022-09-12T10:57:22.676Z,27.40
2022-09-12T11:03:05.534Z,34.15
2022-09-12T11:08:38.464Z,37.64
2022-09-12T11:14:19.132Z,39.63
2022-09-12T11:19:51.082Z,31.31
2022-09-12T11:25:18.212Z,24.01
2022-09-12T11:31:17.511Z,23.52
2022-09-12T11:37:25.861Z,30.92
2022-09-12T11:42:49.491Z,35.93
2022-09-12T11:48:45.426Z,33.97
2022-09-12T11:54:18.494Z,33.47
2022-09-12T11:59:46.732Z,33.51
2022-09-12T12:05:18.053Z,35.75
2022-09-12T12:10:48.515Z,38.47
2022-09-12T12:16:26.921Z,40.49
2022-09-12T12:21:49.729Z,41.79
2022-09-12T12:27:45.167Z,40.49
2022-09-12T12:33:18.233Z,41.17
2022-09-12T12:38:43.177Z,40.75
2022-09-12T12:44:48.563Z,39.24
2022-09-12T12:50:20.781Z,39.06
2022-09-12T12:55:41.639Z,39.78
2022-09-12T13:01:13.655Z,38.90
2022-09-12T13:06:34.371Z,39.88
2022-09-12T13:12:08.554Z,39.81
2022-09-12T13:17:43.440Z,39.09
2022-09-12T13:23:04.640Z,39.20
2022-09-12T13:28:26.465Z,39.18
2022-09-12T13:33:54.799Z,39.50
2022-09-12T13:39:18.280Z,40.37
2022-09-12T13:44:53.177Z,39.73
2022-09-12T13:50:21.261Z,40.52
2022-09-12T13:55:46.199Z,40.61
2022-09-12T14:01:14.743Z,40.77
2022-09-12T14:06:51.035Z,41.37
2022-09-12T14:12:29.505Z,40.89
2022-09-12T14:17:52.755Z,41.84
2022-09-12T14:23:25.036Z,41.40
2022-09-12T14:28:49.697Z,42.04
2022-09-12T14:34:15.157Z,42.28
2022-09-12T14:39:42.925Z,42.25
2022-09-12T14:45:16.657Z,42.58
2022-09-12T14:50:37.521Z,43.43
2022-09-12T14:56:10.856Z,43.10
2022-09-12T15:01:32.199Z,43.69
2022-09-12T15:06:53.632Z,43.83
2022-09-12T15:12:14.546Z,44.39
2022-09-12T15:17:35.183Z,44.45
2022-09-12T15:22:56.688Z,44.53
2022-09-12T15:28:20.965Z,44.68
2022-09-12T15:33:41.744Z,45.17
2022-09-12T15:39:02.602Z,45.75
2022-09-12T15:44:23.754Z,46.03
2022-09-12T15:49:44.750Z,46.05
2022-09-12T15:55:12.333Z,46.07
2022-09-12T16:00:32.879Z,46.38
2022-09-12T16:06:01.734Z,46.91
2022-09-12T16:11:26.662Z,47.29
2022-09-12T16:16:54.639Z,47.93
2022-09-12T16:22:15.408Z,48.02
2022-09-12T16:27:36.979Z,48.73
2022-09-12T16:32:58.274Z,49.10
2022-09-12T16:58:21.615Z,52.79
2022-09-12T17:03:43.821Z,52.64
2022-09-12T17:09:05.261Z,52.65
2022-09-12T17:14:26.830Z,52.86
2022-09-12T17:19:47.722Z,52.91
2022-09-12T17:25:08.711Z,53.02
2022-09-12T17:30:29.500Z,53.14
2022-09-12T17:35:50.414Z,53.59
2022-09-12T17:41:17.608Z,53.86
2022-09-12T17:46:40.072Z,53.96
2022-09-12T17:52:02.315Z,54.41
2022-09-12T17:57:23.185Z,54.43
2022-09-12T18:02:45.344Z,54.64
2022-09-12T18:08:06.402Z,54.98
2022-09-12T18:13:27.170Z,55.07
2022-09-12T18:18:50.935Z,55.45
2022-09-12T18:24:12.547Z,55.72
2022-09-12T18:29:33.610Z,55.68
2022-09-12T18:34:54.600Z,56.08
2022-09-12T18:40:15.476Z,55.86
2022-09-12T18:45:37.128Z,55.75
2022-09-12T18:51:05.681Z,56.29
2022-09-12T18:56:32.216Z,56.60
2022-09-12T19:01:53.356Z,56.86
2022-09-12T19:07:16.968Z,56.67
2022-09-12T19:12:38.248Z,56.51
2022-09-12T19:17:58.967Z,56.34
2022-09-12T19:23:19.687Z,57.25
2022-09-12T19:28:41.361Z,56.83
2022-09-12T19:34:05.376Z,56.84
2022-09-12T19:39:26.499Z,56.80
2022-09-12T19:44:47.510Z,57.51
2022-09-12T19:50:08.628Z,57.38
2022-09-12T19:55:29.476Z,57.39
2022-09-12T20:00:50.279Z,57.62
2022-09-12T20:06:13.364Z,58.20
2022-09-12T20:11:34.025Z,58.25
2022-09-12T20:16:54.872Z,57.91
2022-09-12T20:22:15.516Z,58.56
2022-09-12T20:27:36.597Z,58.42
2022-09-12T20:32:57.299Z,59.46
2022-09-12T20:38:18.339Z,58.35
2022-09-12T20:43:40.054Z,58.78
2022-09-12T20:49:01.160Z,58.86
2022-09-12T20:54:21.804Z,58.15
2022-09-12T20:59:42.583Z,58.81
2022-09-12T21:05:03.429Z,58.53
2022-09-12T21:10:24.025Z,59.03
2022-09-12T21:15:45.156Z,58.62
2022-09-12T21:21:06.061Z,58.89
2022-09-12T21:26:26.950Z,58.80
2022-09-12T21:31:47.894Z,59.01
2022-09-12T21:37:08.816Z,59.20
2022-09-12T21:42:29.518Z,59.01
